sensor_id;sensor_type;location;lat;lon;timestamp;temperature;humidity
70548;DHT22;58099;43.406;3.698;2022-07-29T00:00:43;24.20;98.40
70548;DHT22;58099;43.406;3.698;2022-07-29T00:03:13;24.30;98.00
70548;DHT22;58099;43.406;3.698;2022-07-29T00:05:40;24.40;98.10
70548;DHT22;58099;43.406;3.698;2022-07-29T00:08:07;24.40;98.10
70548;DHT22;58099;43.406;3.698;2022-07-29T00:10:33;24.40;98.20
70548;DHT22;58099;43.406;3.698;2022-07-29T00:12:58;24.40;98.10
70548;DHT22;58099;43.406;3.698;2022-07-29T00:15:24;24.40;98.30
70548;DHT22;58099;43.406;3.698;2022-07-29T00:17:50;24.40;98.70
70548;DHT22;58099;43.406;3.698;2022-07-29T00:20:16;24.30;99.10
70548;DHT22;58099;43.406;3.698;2022-07-29T00:22:42;23.90;99.90
70548;DHT22;58099;43.406;3.698;2022-07-29T00:25:08;23.40;99.90
70548;DHT22;58099;43.406;3.698;2022-07-29T00:27:35;23.30;99.90
70548;DHT22;58099;43.406;3.698;2022-07-29T00:30:00;23.20;99.90
70548;DHT22;58099;43.406;3.698;2022-07-29T00:32:26;23.20;99.90
70548;DHT22;58099;43.406;3.698;2022-07-29T00:34:52;23.10;99.90
70548;DHT22;58099;43.406;3.698;2022-07-29T00:37:36;23.20;99.90
70548;DHT22;58099;43.406;3.698;2022-07-29T00:40:02;23.30;99.90
70548;DHT22;58099;43.406;3.698;2022-07-29T00:42:27;23.20;99.90
70548;DHT22;58099;43.406;3.698;2022-07-29T00:44:53;23.10;99.90
70548;DHT22;58099;43.406;3.698;2022-07-29T00:47:19;22.90;99.90
70548;DHT22;58099;43.406;3.698;2022-07-29T00:49:45;22.90;99.90
70548;DHT22;58099;43.406;3.698;2022-07-29T00:52:11;22.90;99.90
70548;DHT22;58099;43.406;3.698;2022-07-29T00:54:38;22.80;99.90
70548;DHT22;58099;43.406;3.698;2022-07-29T00:57:06;22.80;99.90
70548;DHT22;58099;43.406;3.698;2022-07-29T00:59:32;22.80;99.90
70548;DHT22;58099;43.406;3.698;2022-07-29T01:01:58;22.80;99.90
70548;DHT22;58099;43.406;3.698;2022-07-29T01:04:24;22.70;99.90
70548;DHT22;58099;43.406;3.698;2022-07-29T01:06:50;22.70;99.90
70548;DHT22;58099;43.406;3.698;2022-07-29T01:09:18;22.80;99.90
70548;DHT22;58099;43.406;3.698;2022-07-29T01:11:46;22.90;99.90
70548;DHT22;58099;43.406;3.698;2022-07-29T01:14:13;22.90;99.90
70548;DHT22;58099;43.406;3.698;2022-07-29T01:16:46;23.10;99.90
70548;DHT22;58099;43.406;3.698;2022-07-29T01:25:05;23.10;99.90
70548;DHT22;58099;43.406;3.698;2022-07-29T01:27:41;23.10;99.90
70548;DHT22;58099;43.406;3.698;2022-07-29T01:30:10;23.30;99.90
70548;DHT22;58099;43.406;3.698;2022-07-29T01:32:38;23.40;99.90
70548;DHT22;58099;43.406;3.698;2022-07-29T01:35:19;23.50;99.90
70548;DHT22;58099;43.406;3.698;2022-07-29T01:37:50;23.50;99.90
70548;DHT22;58099;43.406;3.698;2022-07-29T01:40:24;23.50;99.90
70548;DHT22;58099;43.406;3.698;2022-07-29T01:42:57;23.40;99.90
70548;DHT22;58099;43.406;3.698;2022-07-29T01:45:41;23.50;99.90
70548;DHT22;58099;43.406;3.698;2022-07-29T01:48:47;23.50;99.90
70548;DHT22;58099;43.406;3.698;2022-07-29T01:51:16;23.70;99.90
70548;DHT22;58099;43.406;3.698;2022-07-29T01:56:37;23.70;99.90
70548;DHT22;58099;43.406;3.698;2022-07-29T01:59:06;23.70;99.90
70548;DHT22;58099;43.406;3.698;2022-07-29T02:01:33;23.70;99.60
70548;DHT22;58099;43.406;3.698;2022-07-29T02:04:03;23.80;99.80
70548;DHT22;58099;43.406;3.698;2022-07-29T02:06:31;23.80;99.90
70548;DHT22;58099;43.406;3.698;2022-07-29T02:08:58;23.80;99.90
70548;DHT22;58099;43.406;3.698;2022-07-29T02:11:24;23.80;99.90
70548;DHT22;58099;43.406;3.698;2022-07-29T02:13:52;23.70;99.90
70548;DHT22;58099;43.406;3.698;2022-07-29T02:16:21;23.70;99.40
70548;DHT22;58099;43.406;3.698;2022-07-29T02:18:50;23.70;99.00
70548;DHT22;58099;43.406;3.698;2022-07-29T02:21:21;23.70;99.00
70548;DHT22;58099;43.406;3.698;2022-07-29T02:23:48;23.80;99.10
70548;DHT22;58099;43.406;3.698;2022-07-29T02:26:17;23.70;99.10
70548;DHT22;58099;43.406;3.698;2022-07-29T02:28:44;23.70;99.10
70548;DHT22;58099;43.406;3.698;2022-07-29T02:31:12;23.70;99.20
70548;DHT22;58099;43.406;3.698;2022-07-29T02:33:40;23.70;99.10
70548;DHT22;58099;43.406;3.698;2022-07-29T02:36:06;23.70;99.20
70548;DHT22;58099;43.406;3.698;2022-07-29T02:38:34;23.80;99.20
70548;DHT22;58099;43.406;3.698;2022-07-29T02:41:20;23.80;99.10
70548;DHT22;58099;43.406;3.698;2022-07-29T02:43:52;23.80;98.80
70548;DHT22;58099;43.406;3.698;2022-07-29T02:46:25;23.80;98.60
70548;DHT22;58099;43.406;3.698;2022-07-29T02:49:07;23.80;98.70
70548;DHT22;58099;43.406;3.698;2022-07-29T02:51:43;23.80;99.50
70548;DHT22;58099;43.406;3.698;2022-07-29T02:54:11;23.90;99.90
70548;DHT22;58099;43.406;3.698;2022-07-29T02:56:40;23.90;99.90
70548;DHT22;58099;43.406;3.698;2022-07-29T02:59:10;23.90;99.90
70548;DHT22;58099;43.406;3.698;2022-07-29T03:01:40;23.90;99.90
70548;DHT22;58099;43.406;3.698;2022-07-29T03:04:07;23.90;99.90
70548;DHT22;58099;43.406;3.698;2022-07-29T03:06:34;23.90;99.90
70548;DHT22;58099;43.406;3.698;2022-07-29T03:09:01;23.90;99.90
70548;DHT22;58099;43.406;3.698;2022-07-29T03:11:28;23.80;99.90
70548;DHT22;58099;43.406;3.698;2022-07-29T03:13:54;23.80;99.90
70548;DHT22;58099;43.406;3.698;2022-07-29T03:16:20;23.70;99.90
70548;DHT22;58099;43.406;3.698;2022-07-29T03:18:47;23.70;99.90
70548;DHT22;58099;43.406;3.698;2022-07-29T03:21:13;23.60;99.90
70548;DHT22;58099;43.406;3.698;2022-07-29T03:23:43;23.60;99.90
70548;DHT22;58099;43.406;3.698;2022-07-29T03:26:11;23.50;99.90
70548;DHT22;58099;43.406;3.698;2022-07-29T03:28:36;23.50;99.90
70548;DHT22;58099;43.406;3.698;2022-07-29T03:31:02;23.40;99.90
70548;DHT22;58099;43.406;3.698;2022-07-29T03:33:28;23.40;99.90
70548;DHT22;58099;43.406;3.698;2022-07-29T03:35:56;23.30;99.90
70548;DHT22;58099;43.406;3.698;2022-07-29T03:38:24;23.30;99.90
70548;DHT22;58099;43.406;3.698;2022-07-29T03:40:56;23.30;99.80
70548;DHT22;58099;43.406;3.698;2022-07-29T03:43:32;23.40;99.40
70548;DHT22;58099;43.406;3.698;2022-07-29T03:45:59;23.30;99.00
70548;DHT22;58099;43.406;3.698;2022-07-29T03:48:26;23.40;98.90
70548;DHT22;58099;43.406;3.698;2022-07-29T03:50:55;23.40;98.10
70548;DHT22;58099;43.406;3.698;2022-07-29T03:53:21;23.50;98.30
70548;DHT22;58099;43.406;3.698;2022-07-29T03:55:50;23.60;97.80
70548;DHT22;58099;43.406;3.698;2022-07-29T03:58:18;23.60;97.50
70548;DHT22;58099;43.406;3.698;2022-07-29T04:00:45;23.60;97.30
70548;DHT22;58099;43.406;3.698;2022-07-29T04:03:12;23.60;97.40
70548;DHT22;58099;43.406;3.698;2022-07-29T04:05:38;23.70;97.20
70548;DHT22;58099;43.406;3.698;2022-07-29T04:08:04;23.70;96.90
70548;DHT22;58099;43.406;3.698;2022-07-29T04:10:29;23.60;96.70
70548;DHT22;58099;43.406;3.698;2022-07-29T04:12:55;23.70;96.60
70548;DHT22;58099;43.406;3.698;2022-07-29T04:15:21;23.70;96.70
70548;DHT22;58099;43.406;3.698;2022-07-29T04:17:46;23.70;96.60
70548;DHT22;58099;43.406;3.698;2022-07-29T04:20:12;23.70;96.60
70548;DHT22;58099;43.406;3.698;2022-07-29T04:22:39;23.70;96.50
70548;DHT22;58099;43.406;3.698;2022-07-29T04:25:05;23.50;97.00
70548;DHT22;58099;43.406;3.698;2022-07-29T04:27:31;23.40;97.10
70548;DHT22;58099;43.406;3.698;2022-07-29T04:29:56;23.20;97.90
70548;DHT22;58099;43.406;3.698;2022-07-29T04:32:23;23.00;98.20
70548;DHT22;58099;43.406;3.698;2022-07-29T04:34:49;23.00;98.20
70548;DHT22;58099;43.406;3.698;2022-07-29T04:37:14;23.00;98.30
70548;DHT22;58099;43.406;3.698;2022-07-29T04:39:40;23.10;98.20
70548;DHT22;58099;43.406;3.698;2022-07-29T04:42:06;23.20;97.80
70548;DHT22;58099;43.406;3.698;2022-07-29T04:44:32;23.40;97.60
70548;DHT22;58099;43.406;3.698;2022-07-29T04:46:57;23.50;97.40
70548;DHT22;58099;43.406;3.698;2022-07-29T04:49:23;23.40;97.20
70548;DHT22;58099;43.406;3.698;2022-07-29T04:51:49;23.40;97.30
70548;DHT22;58099;43.406;3.698;2022-07-29T04:54:14;23.40;97.20
70548;DHT22;58099;43.406;3.698;2022-07-29T04:56:40;23.40;97.00
70548;DHT22;58099;43.406;3.698;2022-07-29T04:59:07;23.50;96.80
70548;DHT22;58099;43.406;3.698;2022-07-29T05:01:32;23.40;96.70
70548;DHT22;58099;43.406;3.698;2022-07-29T05:03:58;23.40;96.80
70548;DHT22;58099;43.406;3.698;2022-07-29T05:06:24;23.30;96.90
70548;DHT22;58099;43.406;3.698;2022-07-29T05:08:49;23.30;97.10
70548;DHT22;58099;43.406;3.698;2022-07-29T05:11:15;23.40;97.10
70548;DHT22;58099;43.406;3.698;2022-07-29T05:13:41;23.50;97.10
70548;DHT22;58099;43.406;3.698;2022-07-29T05:16:08;23.50;96.90
70548;DHT22;58099;43.406;3.698;2022-07-29T05:18:33;23.60;96.50
70548;DHT22;58099;43.406;3.698;2022-07-29T05:20:59;23.70;96.30
70548;DHT22;58099;43.406;3.698;2022-07-29T05:23:25;23.70;96.20
70548;DHT22;58099;43.406;3.698;2022-07-29T05:25:51;23.80;96.20
70548;DHT22;58099;43.406;3.698;2022-07-29T05:28:16;23.80;96.50
70548;DHT22;58099;43.406;3.698;2022-07-29T05:30:42;23.90;96.60
70548;DHT22;58099;43.406;3.698;2022-07-29T05:33:10;23.90;96.50
70548;DHT22;58099;43.406;3.698;2022-07-29T05:35:36;23.90;96.30
70548;DHT22;58099;43.406;3.698;2022-07-29T05:38:03;24.00;96.10
70548;DHT22;58099;43.406;3.698;2022-07-29T05:40:28;24.00;96.00
70548;DHT22;58099;43.406;3.698;2022-07-29T05:42:54;24.00;96.00
70548;DHT22;58099;43.406;3.698;2022-07-29T05:45:20;24.00;96.00
70548;DHT22;58099;43.406;3.698;2022-07-29T05:47:46;24.00;96.20
70548;DHT22;58099;43.406;3.698;2022-07-29T05:50:12;24.10;96.20
70548;DHT22;58099;43.406;3.698;2022-07-29T05:52:38;24.10;96.60
70548;DHT22;58099;43.406;3.698;2022-07-29T05:55:04;24.10;96.50
70548;DHT22;58099;43.406;3.698;2022-07-29T05:57:31;24.10;96.40
70548;DHT22;58099;43.406;3.698;2022-07-29T05:59:57;24.20;96.40
70548;DHT22;58099;43.406;3.698;2022-07-29T06:02:23;24.20;96.10
70548;DHT22;58099;43.406;3.698;2022-07-29T06:04:48;24.20;96.10
70548;DHT22;58099;43.406;3.698;2022-07-29T06:07:15;24.20;96.10
70548;DHT22;58099;43.406;3.698;2022-07-29T06:09:41;24.20;95.90
70548;DHT22;58099;43.406;3.698;2022-07-29T06:12:07;24.30;95.90
70548;DHT22;58099;43.406;3.698;2022-07-29T06:14:33;24.30;95.80
70548;DHT22;58099;43.406;3.698;2022-07-29T06:16:59;24.30;96.30
70548;DHT22;58099;43.406;3.698;2022-07-29T06:19:25;24.30;96.40
70548;DHT22;58099;43.406;3.698;2022-07-29T06:21:51;24.20;96.60
70548;DHT22;58099;43.406;3.698;2022-07-29T06:24:17;24.20;97.00
70548;DHT22;58099;43.406;3.698;2022-07-29T06:26:43;24.20;97.80
70548;DHT22;58099;43.406;3.698;2022-07-29T06:29:09;24.20;97.80
70548;DHT22;58099;43.406;3.698;2022-07-29T06:31:38;24.00;96.80
70548;DHT22;58099;43.406;3.698;2022-07-29T06:34:04;24.00;97.50
70548;DHT22;58099;43.406;3.698;2022-07-29T06:36:30;24.20;97.60
70548;DHT22;58099;43.406;3.698;2022-07-29T06:38:55;24.10;97.60
70548;DHT22;58099;43.406;3.698;2022-07-29T06:41:21;23.80;97.10
70548;DHT22;58099;43.406;3.698;2022-07-29T06:43:48;23.80;96.70
70548;DHT22;58099;43.406;3.698;2022-07-29T06:46:15;23.70;96.10
70548;DHT22;58099;43.406;3.698;2022-07-29T06:48:43;23.70;96.90
70548;DHT22;58099;43.406;3.698;2022-07-29T06:51:09;23.60;97.10
70548;DHT22;58099;43.406;3.698;2022-07-29T06:53:37;23.50;97.40
70548;DHT22;58099;43.406;3.698;2022-07-29T06:56:04;23.80;97.40
70548;DHT22;58099;43.406;3.698;2022-07-29T06:58:31;24.00;97.20
70548;DHT22;58099;43.406;3.698;2022-07-29T07:00:58;23.90;96.60
70548;DHT22;58099;43.406;3.698;2022-07-29T07:03:24;24.20;97.00
70548;DHT22;58099;43.406;3.698;2022-07-29T07:05:50;24.20;96.50
70548;DHT22;58099;43.406;3.698;2022-07-29T07:08:17;24.30;97.00
70548;DHT22;58099;43.406;3.698;2022-07-29T07:10:43;24.40;97.30
70548;DHT22;58099;43.406;3.698;2022-07-29T07:13:09;24.20;97.60
70548;DHT22;58099;43.406;3.698;2022-07-29T07:15:36;24.20;97.50
70548;DHT22;58099;43.406;3.698;2022-07-29T07:18:02;24.20;97.90
70548;DHT22;58099;43.406;3.698;2022-07-29T07:20:28;24.30;97.80
70548;DHT22;58099;43.406;3.698;2022-07-29T07:22:54;24.40;97.70
70548;DHT22;58099;43.406;3.698;2022-07-29T07:25:20;24.50;97.60
70548;DHT22;58099;43.406;3.698;2022-07-29T07:27:46;25.10;97.30
70548;DHT22;58099;43.406;3.698;2022-07-29T07:30:12;25.30;96.80
70548;DHT22;58099;43.406;3.698;2022-07-29T07:32:38;25.60;96.00
70548;DHT22;58099;43.406;3.698;2022-07-29T07:35:06;25.80;95.80
70548;DHT22;58099;43.406;3.698;2022-07-29T07:37:32;25.70;95.70
70548;DHT22;58099;43.406;3.698;2022-07-29T07:39:58;25.80;95.70
70548;DHT22;58099;43.406;3.698;2022-07-29T07:42:24;25.90;95.70
70548;DHT22;58099;43.406;3.698;2022-07-29T07:44:50;26.10;95.40
70548;DHT22;58099;43.406;3.698;2022-07-29T07:47:16;26.20;95.20
70548;DHT22;58099;43.406;3.698;2022-07-29T07:49:49;26.30;95.20
70548;DHT22;58099;43.406;3.698;2022-07-29T07:52:16;26.50;95.10
70548;DHT22;58099;43.406;3.698;2022-07-29T07:54:43;26.50;95.40
70548;DHT22;58099;43.406;3.698;2022-07-29T07:57:10;26.70;95.50
70548;DHT22;58099;43.406;3.698;2022-07-29T07:59:36;26.50;94.40
70548;DHT22;58099;43.406;3.698;2022-07-29T08:02:02;26.10;95.10
70548;DHT22;58099;43.406;3.698;2022-07-29T08:04:28;26.20;95.40
70548;DHT22;58099;43.406;3.698;2022-07-29T08:06:55;26.10;95.70
70548;DHT22;58099;43.406;3.698;2022-07-29T08:09:21;26.10;95.80
70548;DHT22;58099;43.406;3.698;2022-07-29T08:11:47;26.20;95.60
70548;DHT22;58099;43.406;3.698;2022-07-29T08:14:13;26.10;95.80
70548;DHT22;58099;43.406;3.698;2022-07-29T08:16:40;26.00;95.90
70548;DHT22;58099;43.406;3.698;2022-07-29T08:19:06;25.90;95.90
70548;DHT22;58099;43.406;3.698;2022-07-29T08:21:32;25.90;95.90
70548;DHT22;58099;43.406;3.698;2022-07-29T08:23:58;25.80;96.20
70548;DHT22;58099;43.406;3.698;2022-07-29T08:26:43;26.10;96.00
70548;DHT22;58099;43.406;3.698;2022-07-29T08:29:09;26.00;96.00
70548;DHT22;58099;43.406;3.698;2022-07-29T08:31:36;26.10;95.70
70548;DHT22;58099;43.406;3.698;2022-07-29T08:34:03;26.40;95.60
70548;DHT22;58099;43.406;3.698;2022-07-29T08:36:29;26.20;95.90
70548;DHT22;58099;43.406;3.698;2022-07-29T08:38:55;26.10;96.10
70548;DHT22;58099;43.406;3.698;2022-07-29T08:41:21;26.20;95.90
70548;DHT22;58099;43.406;3.698;2022-07-29T08:43:48;26.30;95.70
70548;DHT22;58099;43.406;3.698;2022-07-29T08:46:15;26.40;95.80
70548;DHT22;58099;43.406;3.698;2022-07-29T08:48:43;26.50;95.70
70548;DHT22;58099;43.406;3.698;2022-07-29T08:51:22;26.50;95.60
70548;DHT22;58099;43.406;3.698;2022-07-29T08:53:49;26.70;95.40
70548;DHT22;58099;43.406;3.698;2022-07-29T08:56:16;27.00;95.10
70548;DHT22;58099;43.406;3.698;2022-07-29T08:58:43;26.80;94.90
70548;DHT22;58099;43.406;3.698;2022-07-29T09:01:12;26.90;95.00
70548;DHT22;58099;43.406;3.698;2022-07-29T09:03:40;27.00;94.90
70548;DHT22;58099;43.406;3.698;2022-07-29T09:06:07;26.90;94.40
70548;DHT22;58099;43.406;3.698;2022-07-29T09:08:33;26.80;94.40
70548;DHT22;58099;43.406;3.698;2022-07-29T09:11:01;26.80;94.50
70548;DHT22;58099;43.406;3.698;2022-07-29T09:13:27;27.00;94.20
70548;DHT22;58099;43.406;3.698;2022-07-29T09:15:52;26.90;94.00
70548;DHT22;58099;43.406;3.698;2022-07-29T09:18:47;26.70;94.40
70548;DHT22;58099;43.406;3.698;2022-07-29T09:21:15;26.80;94.70
70548;DHT22;58099;43.406;3.698;2022-07-29T09:26:31;26.60;95.60
70548;DHT22;58099;43.406;3.698;2022-07-29T09:28:57;26.50;96.10
70548;DHT22;58099;43.406;3.698;2022-07-29T09:31:33;26.40;96.40
70548;DHT22;58099;43.406;3.698;2022-07-29T09:34:00;26.40;97.00
70548;DHT22;58099;43.406;3.698;2022-07-29T09:36:26;26.30;96.90
70548;DHT22;58099;43.406;3.698;2022-07-29T09:38:59;26.30;97.20
70548;DHT22;58099;43.406;3.698;2022-07-29T09:41:26;26.20;97.20
70548;DHT22;58099;43.406;3.698;2022-07-29T09:43:57;26.20;97.20
70548;DHT22;58099;43.406;3.698;2022-07-29T09:46:24;26.50;96.60
70548;DHT22;58099;43.406;3.698;2022-07-29T09:49:08;26.80;96.50
70548;DHT22;58099;43.406;3.698;2022-07-29T09:51:35;26.60;96.30
70548;DHT22;58099;43.406;3.698;2022-07-29T09:54:01;26.70;96.40
70548;DHT22;58099;43.406;3.698;2022-07-29T09:56:42;26.70;96.30
70548;DHT22;58099;43.406;3.698;2022-07-29T09:59:09;26.60;96.30
70548;DHT22;58099;43.406;3.698;2022-07-29T10:01:36;26.60;96.30
70548;DHT22;58099;43.406;3.698;2022-07-29T10:04:02;26.60;96.50
70548;DHT22;58099;43.406;3.698;2022-07-29T10:06:28;26.60;96.50
70548;DHT22;58099;43.406;3.698;2022-07-29T10:08:54;26.10;96.80
70548;DHT22;58099;43.406;3.698;2022-07-29T10:11:20;25.90;97.30
70548;DHT22;58099;43.406;3.698;2022-07-29T10:13:48;25.80;97.90
70548;DHT22;58099;43.406;3.698;2022-07-29T10:16:15;25.90;98.30
70548;DHT22;58099;43.406;3.698;2022-07-29T10:18:44;26.20;97.90
70548;DHT22;58099;43.406;3.698;2022-07-29T10:21:10;26.50;97.50
70548;DHT22;58099;43.406;3.698;2022-07-29T10:23:37;26.90;97.20
70548;DHT22;58099;43.406;3.698;2022-07-29T10:26:04;26.90;97.20
70548;DHT22;58099;43.406;3.698;2022-07-29T10:28:31;27.00;97.30
70548;DHT22;58099;43.406;3.698;2022-07-29T10:31:06;27.00;97.70
70548;DHT22;58099;43.406;3.698;2022-07-29T10:34:02;26.90;98.10
70548;DHT22;58099;43.406;3.698;2022-07-29T10:36:35;26.70;98.50
70548;DHT22;58099;43.406;3.698;2022-07-29T10:44:24;26.30;98.50
70548;DHT22;58099;43.406;3.698;2022-07-29T10:46:51;26.30;98.20
70548;DHT22;58099;43.406;3.698;2022-07-29T10:49:24;26.40;97.90
70548;DHT22;58099;43.406;3.698;2022-07-29T10:51:55;26.60;97.70
70548;DHT22;58099;43.406;3.698;2022-07-29T10:54:42;26.90;97.50
70548;DHT22;58099;43.406;3.698;2022-07-29T11:00:35;27.60;96.90
70548;DHT22;58099;43.406;3.698;2022-07-29T11:05:07;28.90;95.50
70548;DHT22;58099;43.406;3.698;2022-07-29T11:07:34;29.00;94.50
70548;DHT22;58099;43.406;3.698;2022-07-29T11:15:09;29.00;93.50
70548;DHT22;58099;43.406;3.698;2022-07-29T11:20:43;28.70;93.10
70548;DHT22;58099;43.406;3.698;2022-07-29T11:23:24;28.70;92.60
70548;DHT22;58099;43.406;3.698;2022-07-29T11:31:39;29.60;92.00
70548;DHT22;58099;43.406;3.698;2022-07-29T11:34:29;30.00;91.90
70548;DHT22;58099;43.406;3.698;2022-07-29T11:39:34;29.90;91.50
70548;DHT22;58099;43.406;3.698;2022-07-29T11:47:22;29.30;90.30
70548;DHT22;58099;43.406;3.698;2022-07-29T11:49:49;29.30;90.20
70548;DHT22;58099;43.406;3.698;2022-07-29T11:52:16;28.40;90.90
70548;DHT22;58099;43.406;3.698;2022-07-29T11:54:43;27.80;92.70
70548;DHT22;58099;43.406;3.698;2022-07-29T11:57:09;27.20;93.60
70548;DHT22;58099;43.406;3.698;2022-07-29T11:59:42;26.70;94.20
70548;DHT22;58099;43.406;3.698;2022-07-29T12:02:09;26.30;94.60
70548;DHT22;58099;43.406;3.698;2022-07-29T12:04:55;26.20;94.80
70548;DHT22;58099;43.406;3.698;2022-07-29T12:07:29;26.10;94.70
70548;DHT22;58099;43.406;3.698;2022-07-29T12:09:56;26.10;94.90
70548;DHT22;58099;43.406;3.698;2022-07-29T12:12:22;26.20;94.80
70548;DHT22;58099;43.406;3.698;2022-07-29T12:14:48;26.00;95.20
70548;DHT22;58099;43.406;3.698;2022-07-29T12:17:44;26.10;95.70
70548;DHT22;58099;43.406;3.698;2022-07-29T12:20:11;26.00;95.10
70548;DHT22;58099;43.406;3.698;2022-07-29T12:22:40;25.80;95.80
70548;DHT22;58099;43.406;3.698;2022-07-29T12:25:13;25.60;96.90
70548;DHT22;58099;43.406;3.698;2022-07-29T12:27:45;25.70;97.50
70548;DHT22;58099;43.406;3.698;2022-07-29T12:30:15;25.70;97.30
70548;DHT22;58099;43.406;3.698;2022-07-29T12:32:46;25.70;97.10
70548;DHT22;58099;43.406;3.698;2022-07-29T12:35:14;25.50;96.80
70548;DHT22;58099;43.406;3.698;2022-07-29T12:37:44;25.60;97.20
70548;DHT22;58099;43.406;3.698;2022-07-29T12:40:12;25.90;97.20
70548;DHT22;58099;43.406;3.698;2022-07-29T12:42:38;26.00;96.50
70548;DHT22;58099;43.406;3.698;2022-07-29T12:45:05;25.70;96.70
70548;DHT22;58099;43.406;3.698;2022-07-29T12:47:31;25.90;96.70
70548;DHT22;58099;43.406;3.698;2022-07-29T12:50:14;26.50;95.70
70548;DHT22;58099;43.406;3.698;2022-07-29T12:52:43;27.10;95.10
70548;DHT22;58099;43.406;3.698;2022-07-29T12:55:09;28.10;94.20
70548;DHT22;58099;43.406;3.698;2022-07-29T12:57:49;28.50;92.90
70548;DHT22;58099;43.406;3.698;2022-07-29T13:00:22;28.20;91.50
70548;DHT22;58099;43.406;3.698;2022-07-29T13:02:55;28.40;93.00
70548;DHT22;58099;43.406;3.698;2022-07-29T13:05:21;28.10;94.30
70548;DHT22;58099;43.406;3.698;2022-07-29T13:07:47;27.50;94.30
70548;DHT22;58099;43.406;3.698;2022-07-29T13:10:18;27.60;93.70
70548;DHT22;58099;43.406;3.698;2022-07-29T13:13:06;27.10;94.20
70548;DHT22;58099;43.406;3.698;2022-07-29T13:15:35;26.50;95.30
70548;DHT22;58099;43.406;3.698;2022-07-29T13:18:01;26.40;96.20
70548;DHT22;58099;43.406;3.698;2022-07-29T13:20:28;26.30;96.50
70548;DHT22;58099;43.406;3.698;2022-07-29T13:22:58;26.40;97.00
70548;DHT22;58099;43.406;3.698;2022-07-29T13:25:29;26.70;96.60
70548;DHT22;58099;43.406;3.698;2022-07-29T13:27:59;27.00;96.40
70548;DHT22;58099;43.406;3.698;2022-07-29T13:30:25;27.10;94.60
70548;DHT22;58099;43.406;3.698;2022-07-29T13:32:52;26.90;94.60
70548;DHT22;58099;43.406;3.698;2022-07-29T13:35:18;26.70;95.40
70548;DHT22;58099;43.406;3.698;2022-07-29T13:37:45;26.80;95.50
70548;DHT22;58099;43.406;3.698;2022-07-29T13:40:11;26.10;96.20
70548;DHT22;58099;43.406;3.698;2022-07-29T13:42:38;25.70;98.70
70548;DHT22;58099;43.406;3.698;2022-07-29T13:45:05;25.50;99.20
70548;DHT22;58099;43.406;3.698;2022-07-29T13:47:32;25.50;98.90
70548;DHT22;58099;43.406;3.698;2022-07-29T13:49:57;25.50;97.80
70548;DHT22;58099;43.406;3.698;2022-07-29T13:52:23;25.50;98.90
70548;DHT22;58099;43.406;3.698;2022-07-29T13:54:49;25.40;99.20
70548;DHT22;58099;43.406;3.698;2022-07-29T13:57:15;25.50;99.30
70548;DHT22;58099;43.406;3.698;2022-07-29T13:59:42;25.60;99.90
70548;DHT22;58099;43.406;3.698;2022-07-29T14:02:08;25.60;99.90
70548;DHT22;58099;43.406;3.698;2022-07-29T14:04:34;25.60;99.90
70548;DHT22;58099;43.406;3.698;2022-07-29T14:07:00;25.50;99.60
70548;DHT22;58099;43.406;3.698;2022-07-29T14:09:26;25.80;99.40
70548;DHT22;58099;43.406;3.698;2022-07-29T14:11:51;26.00;98.30
70548;DHT22;58099;43.406;3.698;2022-07-29T14:14:18;25.50;98.70
70548;DHT22;58099;43.406;3.698;2022-07-29T14:16:44;25.60;98.60
70548;DHT22;58099;43.406;3.698;2022-07-29T14:19:11;25.40;98.80
70548;DHT22;58099;43.406;3.698;2022-07-29T14:21:38;25.80;98.00
70548;DHT22;58099;43.406;3.698;2022-07-29T14:24:05;25.90;97.90
70548;DHT22;58099;43.406;3.698;2022-07-29T14:26:31;25.70;97.50
70548;DHT22;58099;43.406;3.698;2022-07-29T14:28:57;25.60;97.70
70548;DHT22;58099;43.406;3.698;2022-07-29T14:31:23;25.70;97.00
70548;DHT22;58099;43.406;3.698;2022-07-29T14:33:49;25.80;97.00
70548;DHT22;58099;43.406;3.698;2022-07-29T14:36:14;26.10;96.10
70548;DHT22;58099;43.406;3.698;2022-07-29T14:38:40;26.10;96.20
70548;DHT22;58099;43.406;3.698;2022-07-29T14:41:07;26.10;96.00
70548;DHT22;58099;43.406;3.698;2022-07-29T14:43:33;26.10;95.40
70548;DHT22;58099;43.406;3.698;2022-07-29T14:46:00;26.20;95.10
70548;DHT22;58099;43.406;3.698;2022-07-29T14:48:26;26.10;95.20
70548;DHT22;58099;43.406;3.698;2022-07-29T14:50:51;26.50;95.00
70548;DHT22;58099;43.406;3.698;2022-07-29T14:53:17;26.30;94.90
70548;DHT22;58099;43.406;3.698;2022-07-29T14:55:43;26.30;95.10
70548;DHT22;58099;43.406;3.698;2022-07-29T14:58:09;26.30;95.00
70548;DHT22;58099;43.406;3.698;2022-07-29T15:00:35;26.00;94.50
70548;DHT22;58099;43.406;3.698;2022-07-29T15:03:02;25.90;95.20
70548;DHT22;58099;43.406;3.698;2022-07-29T15:05:29;26.00;95.30
70548;DHT22;58099;43.406;3.698;2022-07-29T15:07:55;25.70;94.70
70548;DHT22;58099;43.406;3.698;2022-07-29T15:10:21;25.80;95.40
70548;DHT22;58099;43.406;3.698;2022-07-29T15:12:47;25.80;95.10
70548;DHT22;58099;43.406;3.698;2022-07-29T15:15:13;25.80;95.00
70548;DHT22;58099;43.406;3.698;2022-07-29T15:17:38;26.00;94.90
70548;DHT22;58099;43.406;3.698;2022-07-29T15:20:04;25.90;94.80
70548;DHT22;58099;43.406;3.698;2022-07-29T15:22:30;26.10;94.50
70548;DHT22;58099;43.406;3.698;2022-07-29T15:24:56;25.90;94.20
70548;DHT22;58099;43.406;3.698;2022-07-29T15:27:22;25.70;94.20
70548;DHT22;58099;43.406;3.698;2022-07-29T15:29:48;25.60;94.30
70548;DHT22;58099;43.406;3.698;2022-07-29T15:32:13;25.60;94.60
70548;DHT22;58099;43.406;3.698;2022-07-29T15:34:39;25.70;94.30
70548;DHT22;58099;43.406;3.698;2022-07-29T15:37:05;25.80;94.60
70548;DHT22;58099;43.406;3.698;2022-07-29T15:39:31;25.70;94.30
70548;DHT22;58099;43.406;3.698;2022-07-29T15:41:57;25.60;93.90
70548;DHT22;58099;43.406;3.698;2022-07-29T15:44:25;25.80;93.90
70548;DHT22;58099;43.406;3.698;2022-07-29T15:46:51;26.00;93.10
70548;DHT22;58099;43.406;3.698;2022-07-29T15:49:39;26.00;92.90
70548;DHT22;58099;43.406;3.698;2022-07-29T15:52:07;26.10;92.60
70548;DHT22;58099;43.406;3.698;2022-07-29T15:54:35;26.10;92.30
70548;DHT22;58099;43.406;3.698;2022-07-29T15:57:03;26.30;92.30
70548;DHT22;58099;43.406;3.698;2022-07-29T15:59:29;26.10;92.00
70548;DHT22;58099;43.406;3.698;2022-07-29T16:01:54;26.20;92.10
70548;DHT22;58099;43.406;3.698;2022-07-29T16:04:20;26.10;92.00
70548;DHT22;58099;43.406;3.698;2022-07-29T16:06:47;26.00;92.60
70548;DHT22;58099;43.406;3.698;2022-07-29T16:09:13;25.90;92.60
70548;DHT22;58099;43.406;3.698;2022-07-29T16:11:40;25.70;92.70
70548;DHT22;58099;43.406;3.698;2022-07-29T16:14:06;25.70;92.60
70548;DHT22;58099;43.406;3.698;2022-07-29T16:16:32;25.70;93.10
70548;DHT22;58099;43.406;3.698;2022-07-29T16:18:58;25.60;92.80